May 17, 2022

Time Code Weather Temp. Visibility Clouds Wind METAR/SPECI
2:20 pm
V
72 °F 6¼ mi+ - 130°   130° 7 kt METAR EDLV 171220Z 13007KT 090V150 CAVOK 22/13 Q1020
1:50 pm
V
70 °F 6¼ mi+ - 120°   120° 6 kt METAR EDLV 171150Z 12006KT 080V150 CAVOK 21/13 Q1020
1:20 pm
V
68 °F 6¼ mi+ - 130°   130° 8 kt METAR EDLV 171120Z 13008KT 080V150 CAVOK 20/13 Q1021
12:50 pm
V
66 °F 6¼ mi+ - 130°   130° 7 kt METAR EDLV 171050Z 13007KT CAVOK 19/15 Q1021
12:20 pm
V
66 °F 6¼ mi+ - 100°   100° 3 kt METAR EDLV 171020Z 10003KT 050V130 9999 FEW045 19/14 Q1021
11:50 am
V
66 °F 6¼ mi+ - Var   Var 2 kt METAR EDLV 170950Z VRB02KT CAVOK 19/14 Q1022
11:20 am
V
64 °F 6¼ mi+ - 130°   130° 3 kt METAR EDLV 170920Z 13003KT 090V150 CAVOK 18/14 Q1021
10:50 am
V
64 °F 6¼ mi+ - 140°   140° 2 kt METAR EDLV 170850Z 14002KT CAVOK 18/14 Q1021
10:20 am
V
64 °F 6¼ mi+ - Var   Var 2 kt METAR EDLV 170820Z VRB02KT CAVOK 18/14 Q1021
9:50 am
V
63 °F 6¼ mi+ - Var   Var 2 kt METAR EDLV 170750Z VRB02KT CAVOK 17/14 Q1021
9:20 am
V
63 °F 6¼ mi+ - Var   Var 1 kt METAR EDLV 170720Z VRB01KT CAVOK 17/14 Q1021
8:50 am
V
61 °F 6¼ mi+ - Var   Var 2 kt METAR EDLV 170650Z VRB02KT CAVOK 16/14 Q1021
8:20 am
V
59 °F 6¼ mi+ - 170°   170° 3 kt METAR EDLV 170620Z 17003KT 130V190 CAVOK 15/13 Q1021
7:50 am
V
57 °F 6¼ mi+ - 180°   180° 2 kt METAR EDLV 170550Z 18002KT CAVOK 14/13 Q1021
7:20 am
V
57 °F 6¼ mi+ - 150°   150° 3 kt METAR EDLV 170520Z 15003KT 120V190 CAVOK 14/13 Q1020
6:50 am
V
55 °F 6¼ mi+ - 150°   150° 3 kt METAR EDLV 170450Z 15003KT 120V180 CAVOK 13/12 Q1020
6:20 am
V
55 °F 6¼ mi+ - 150°   150° 4 kt METAR EDLV 170420Z 15004KT CAVOK 13/12 Q1020
5:50 am
V
55 °F 6¼ mi+ - Var   Var 2 kt METAR EDLV 170350Z VRB02KT CAVOK 13/12 Q1020
5:20 am
V
55 °F 6¼ mi+ - 160°   160° 3 kt METAR EDLV 170320Z 16003KT CAVOK 13/12 Q1020
4:50 am
V
55 °F 6¼ mi+ 10,000 ft Var   Var 1 kt METAR EDLV 170250Z AUTO VRB01KT 9999 // FEW084/// OVC100/// 13/12 Q1020
4:20 am
V
54 °F 6¼ mi+ 11,000 ft 140°   140° 3 kt METAR EDLV 170220Z AUTO 14003KT 9999 // FEW078/// BKN110/// 12/12 Q1020
3:50 am
V
54 °F 6¼ mi+ - 170°   170° 2 kt METAR EDLV 170150Z AUTO 17002KT 9999 // FEW088/// SCT100/// 12/11 Q1020
3:20 am
V
52 °F 6¼ mi+ - 160°   160° 1 kt METAR EDLV 170120Z AUTO 16001KT 9999 // NCD 11/10 Q1020
2:50 am
V
54 °F 6¼ mi+ - 150°   150° 1 kt METAR EDLV 170050Z AUTO 15001KT 9999 // NCD 12/12 Q1020
2:20 am
V
55 °F 5⅝ mi - 220°   220° 1 kt METAR EDLV 170020Z AUTO 22001KT 9000 // NCD 13/12 Q1020
1:50 am
V
55 °F 6¼ mi+ - 180°   180° 1 kt METAR EDLV 162350Z AUTO 18001KT 9999 // NCD 13/12 Q1020
1:20 am
V
55 °F 6¼ mi+ - 190°   190° 2 kt METAR EDLV 162320Z AUTO 19002KT 9999 // NCD 13/12 Q1020
12:50 am
V
55 °F 5⅝ mi - 140°   140° 2 kt METAR EDLV 162250Z AUTO 14002KT 9000 // NCD 13/12 Q1020
12:20 am
V
57 °F 6¼ mi+ - 130°   130° 2 kt METAR EDLV 162220Z AUTO 13002KT 9999 // NCD 14/13 Q1020

May 16, 2022

Time Code Weather Temp. Visibility Clouds Wind METAR/SPECI
11:50 pm
V
57 °F 5⅝ mi - Var   000° 0 kt METAR EDLV 162150Z 00000KT 9000 NSC 14/13 Q1020
11:20 pm
V
57 °F 6¼ mi+ - Var   000° 0 kt METAR EDLV 162120Z 00000KT CAVOK 14/14 Q1020
10:50 pm
V
57 °F 6¼ mi+ - Var   000° 0 kt METAR EDLV 162050Z 00000KT CAVOK 14/13 Q1019
10:20 pm
V
59 °F 6¼ mi+ - Var   000° 0 kt METAR EDLV 162020Z 00000KT CAVOK 15/13 Q1019
9:50 pm
V
61 °F 6¼ mi+ - Var   000° 0 kt METAR EDLV 161950Z 00000KT CAVOK 16/14 Q1019
9:20 pm
V
66 °F 6¼ mi+ - 330°   330° 3 kt METAR EDLV 161920Z 33003KT CAVOK 19/14 Q1018
8:50 pm
V
66 °F 6¼ mi+ - 320°   320° 3 kt METAR EDLV 161850Z 32003KT CAVOK 19/14 Q1018
8:20 pm
V
68 °F 6¼ mi+ - 320°   320° 5 kt METAR EDLV 161820Z 32005KT 290V360 CAVOK 20/14 Q1018
7:50 pm
V
70 °F 6¼ mi+ - 290°   290° 7 kt METAR EDLV 161750Z 29007KT 260V320 9999 FEW030 21/15 Q1018
7:20 pm
V
70 °F 6¼ mi+ - 300°   300° 6 kt METAR EDLV 161720Z 30006KT 270V340 9999 FEW025 21/15 Q1017
6:50 pm
V
70 °F 6¼ mi+ - 280°   280° 5 kt METAR EDLV 161650Z 28005KT 9999 FEW032 21/16 Q1017
6:20 pm
V
68 °F 6¼ mi+ 3,200 ft 280°   280° 6 kt METAR EDLV 161620Z 28006KT 9999 BKN032 20/16 Q1017
5:50 pm
V
68 °F 6¼ mi+ - 280°   280° 4 kt METAR EDLV 161550Z 28004KT 9999 FEW028 20/16 Q1017
5:20 pm
V
68 °F 6¼ mi+ 3,700 ft 290°   290° 5 kt METAR EDLV 161520Z 29005KT 260V330 9999 FEW018 BKN037 20/16 Q1017
4:50 pm
M
68 °F 6¼ mi+ 2,600 ft 290°   290° 8 kt METAR EDLV 161450Z 29008KT 260V330 9999 VCSH FEW018 BKN026 20/17 Q1017
4:20 pm
M
68 °F 6¼ mi+ 2,800 ft 270°   270° 13 kt METAR EDLV 161420Z 27013KT 9999 VCTS SCT017 BKN028 20/16 Q1016
3:50 pm
V
70 °F 6¼ mi+ - 280°   280° 6 kt METAR EDLV 161350Z 28006KT 260V320 9999 -DZ FEW022 SCT028 21/18 Q1016
3:20 pm
V
68 °F 6¼ mi+ 4,200 ft 320°   320° 5 kt METAR EDLV 161320Z 32005KT 290V350 9999 VCSH FEW029CB SCT036 OVC042 20/18 Q1016
2:50 pm
V
68 °F 5⅝ mi 4,400 ft 270°   270° 9 21 kt METAR EDLV 161250Z 27009G21KT 9000 VCTS BKN044CB 20/17 Q1016
2:20 pm
V
72 °F 6¼ mi+ - 280°   280° 4 kt METAR EDLV 161220Z 28004KT 260V350 9999 VCSH FEW030CB 22/18 Q1015
1:50 pm
V
66 °F 5⅝ mi - 210°   210° 9 kt METAR EDLV 161150Z 21009KT 9000 -SHRA VCTS FEW031CB 19/17 Q1015
1:20 pm
V
77 °F 6¼ mi+ - 170°   170° 5 kt METAR EDLV 161120Z 17005KT 120V210 9999 VCSH FEW036CB 25/14 Q1014
12:50 pm
V
77 °F 6¼ mi+ - 190°   190° 6 kt METAR EDLV 161050Z 19006KT 140V230 CAVOK 25/14 Q1015
12:20 pm
V
77 °F 6¼ mi+ - 170°   170° 6 kt METAR EDLV 161020Z 17006KT 140V200 CAVOK 25/15 Q1014
11:50 am
V
72 °F 6¼ mi+ - 150°   150° 5 kt METAR EDLV 160950Z 15005KT 120V180 CAVOK 22/15 Q1014
11:20 am
V
68 °F 6¼ mi+ - 160°   160° 4 kt METAR EDLV 160920Z 16004KT 110V200 CAVOK 20/14 Q1014
10:50 am
V
66 °F 6¼ mi+ - 130°   130° 5 kt METAR EDLV 160850Z 13005KT CAVOK 19/14 Q1014
10:20 am
V
66 °F 6¼ mi+ - 140°   140° 4 kt METAR EDLV 160820Z 14004KT 090V150 9999 VCSH NSC 19/14 Q1014
9:50 am
V
64 °F 6¼ mi+ - 150°   150° 4 kt METAR EDLV 160750Z 15004KT 9999 VCSH FEW048TCU 18/13 Q1014
9:20 am
V
63 °F 6¼ mi+ - 140°   140° 3 kt METAR EDLV 160720Z 14003KT 110V170 9999 VCSH FEW048TCU 17/13 Q1014
8:20 am
V
66 °F 6¼ mi+ - 130°   130° 8 kt METAR EDLV 160620Z 13008KT CAVOK 19/11 Q1013
7:50 am
V
64 °F 6¼ mi+ - 140°   140° 8 kt METAR EDLV 160550Z 14008KT CAVOK 18/10 Q1013
7:20 am
V
63 °F 6¼ mi+ - 120°   120° 6 kt METAR EDLV 160520Z 12006KT CAVOK 17/10 Q1013
6:50 am
V
61 °F 6¼ mi+ - 120°   120° 5 kt METAR EDLV 160450Z 12005KT CAVOK 16/10 Q1013
6:20 am
V
59 °F 6¼ mi+ - 120°   120° 5 kt METAR EDLV 160420Z 12005KT CAVOK 15/09 Q1013
5:50 am
V
59 °F 6¼ mi+ - 110°   110° 5 kt METAR EDLV 160350Z 11005KT CAVOK 15/09 Q1013
5:20 am
V
57 °F 6¼ mi+ - 130°   130° 4 kt METAR EDLV 160320Z 13004KT 090V200 CAVOK 14/09 Q1013
4:50 am
V
57 °F 6¼ mi+ - 110°   110° 5 kt METAR EDLV 160250Z AUTO 11005KT 9999 // FEW200/// 14/09 Q1013
4:20 am
V
59 °F 6¼ mi+ - 100°   100° 4 kt METAR EDLV 160220Z AUTO 10004KT 060V130 9999 // NCD 15/09 Q1013
3:50 am
V
59 °F 6¼ mi+ - 100°   100° 4 kt METAR EDLV 160150Z AUTO 10004KT 080V140 9999 // NCD 15/09 Q1014
3:20 am
V
59 °F 6¼ mi+ - 100°   100° 4 kt METAR EDLV 160120Z AUTO 10004KT 070V130 9999 // FEW250/// 15/08 Q1014
2:50 am
V
59 °F 6¼ mi+ - 100°   100° 4 kt METAR EDLV 160050Z AUTO 10004KT 050V120 9999 // NCD 15/08 Q1014
2:20 am
V
61 °F 6¼ mi+ - 090°   090° 4 kt METAR EDLV 160020Z AUTO 09004KT 050V120 9999 // NCD 16/09 Q1014
1:50 am
V
61 °F 6¼ mi+ - 100°   100° 4 kt METAR EDLV 152350Z AUTO 10004KT 070V130 9999 // FEW230/// 16/08 Q1014
1:20 am
V
61 °F 6¼ mi+ - 090°   090° 3 kt METAR EDLV 152320Z AUTO 09003KT 060V140 9999 // SCT210/// 16/08 Q1014
12:50 am
V
64 °F 6¼ mi+ 21,000 ft 090°   090° 3 kt METAR EDLV 152250Z AUTO 09003KT 050V120 9999 // BKN210/// 18/08 Q1015
12:20 am
V
66 °F 6¼ mi+ 23,000 ft 080°   080° 4 kt METAR EDLV 152220Z AUTO 08004KT 050V120 9999 // BKN230/// 19/08 Q1015

May 15, 2022

Time Code Weather Temp. Visibility Clouds Wind METAR/SPECI
11:50 pm
V
66 °F 6¼ mi+ - 070°   070° 3 kt METAR EDLV 152150Z AUTO 07003KT 040V100 9999 // NCD 19/08 Q1015
11:20 pm
V
66 °F 6¼ mi+ - 080°   080° 3 kt METAR EDLV 152120Z 08003KT 040V110 CAVOK 19/08 Q1015
10:50 pm
V
68 °F 6¼ mi+ - 080°   080° 3 kt METAR EDLV 152050Z 08003KT 020V110 CAVOK 20/08 Q1015
10:20 pm
V
68 °F 6¼ mi+ - 090°   090° 3 kt METAR EDLV 152020Z 09003KT 340V130 CAVOK 20/08 Q1015
9:50 pm
V
70 °F 6¼ mi+ - 080°   080° 4 kt METAR EDLV 151950Z 08004KT 040V120 CAVOK 21/08 Q1015
9:20 pm
V
72 °F 6¼ mi+ - 070°   070° 3 kt METAR EDLV 151920Z 07003KT 020V100 CAVOK 22/08 Q1015
8:50 pm
V
73 °F 6¼ mi+ - 060°   060° 3 kt METAR EDLV 151850Z 06003KT 020V110 CAVOK 23/07 Q1015
8:20 pm
V
75 °F 6¼ mi+ - Var   Var 4 kt METAR EDLV 151820Z VRB04KT CAVOK 24/07 Q1015
7:50 pm
V
75 °F 6¼ mi+ - 060°   060° 4 kt METAR EDLV 151750Z 06004KT 010V150 CAVOK 24/07 Q1015
7:20 pm
V
75 °F 6¼ mi+ - 060°   060° 5 kt METAR EDLV 151720Z 06005KT 360V110 CAVOK 24/07 Q1015
6:50 pm
V
77 °F 6¼ mi+ - 070°   070° 5 kt METAR EDLV 151650Z 07005KT 020V140 CAVOK 25/07 Q1015
6:20 pm
V
77 °F 6¼ mi+ - 080°   080° 4 kt METAR EDLV 151620Z 08004KT 010V140 CAVOK 25/06 Q1016
5:50 pm
V
77 °F 6¼ mi+ - 080°   080° 5 kt METAR EDLV 151550Z 08005KT 020V150 CAVOK 25/06 Q1016
5:20 pm
V
77 °F 6¼ mi+ - Var   Var 5 kt METAR EDLV 151520Z VRB05KT CAVOK 25/06 Q1016
4:50 pm
V
79 °F 6¼ mi+ - Var   Var 6 kt METAR EDLV 151450Z VRB06KT CAVOK 26/07 Q1017
4:20 pm
V
77 °F 6¼ mi+ - Var   Var 5 kt METAR EDLV 151420Z VRB05KT CAVOK 25/06 Q1017
3:50 pm
V
77 °F 6¼ mi+ - 100°   100° 6 kt METAR EDLV 151350Z 10006KT 040V150 CAVOK 25/06 Q1017
3:20 pm
V
77 °F 6¼ mi+ - Var   Var 6 16 kt METAR EDLV 151320Z VRB06G16KT CAVOK 25/06 Q1017
2:50 pm
V
75 °F 6¼ mi+ - 110°   110° 6 kt METAR EDLV 151250Z 11006KT 010V180 CAVOK 24/06 Q1018
Older data

Download our app

Easy access to all aviation weather on your mobile phone and tablet.
With many features not available on the website, like offline support and a personal airport list.